Time;durP1;ratioP1;P1;durP2;ratioP2;P2;SDS_P1;SDS_P2;PMS_P1;PMS_P2;Temp;Humidity;BMP_temperature;BMP_pressure;BME280_temperature;BME280_humidity;BME280_pressure;Samples;Min_cycle;Max_cycle;Signal;HPM_P1;HPM_P2
2021/07/04 00:01:10;;;;;;;22.43;21.33;;;;;;;;;;5074920;28;21052;-72
2021/07/04 00:03:37;;;;;;;22.43;21.23;;;;;;;;;;5074781;28;20485;-72
2021/07/04 00:06:04;;;;;;;23.20;21.90;;;;;;;;;;5074493;28;20831;-71
2021/07/04 00:08:31;;;;;;;23.30;22.20;;;;;;;;;;5074943;28;20455;-72
2021/07/04 00:11:00;;;;;;;22.47;21.27;;;;;;;;;;5074045;28;20471;-71
2021/07/04 00:13:28;;;;;;;23.00;21.80;;;;;;;;;;5075041;28;20512;-72
2021/07/04 00:15:55;;;;;;;22.40;21.20;;;;;;;;;;5075484;28;20457;-71
2021/07/04 00:18:23;;;;;;;22.50;21.30;;;;;;;;;;5074714;28;20950;-71
2021/07/04 00:20:51;;;;;;;22.80;21.60;;;;;;;;;;5074713;28;20462;-71
2021/07/04 00:23:18;;;;;;;22.20;20.93;;;;;;;;;;5074838;28;20485;-71
2021/07/04 00:25:46;;;;;;;22.57;21.27;;;;;;;;;;5074962;28;20461;-72
2021/07/04 00:28:15;;;;;;;24.13;22.93;;;;;;;;;;5074106;28;20537;-72
2021/07/04 00:30:42;;;;;;;23.07;21.87;;;;;;;;;;5074699;28;20471;-72
2021/07/04 00:33:10;;;;;;;24.63;23.13;;;;;;;;;;5073339;28;20517;-72
2021/07/04 00:35:37;;;;;;;24.97;23.47;;;;;;;;;;5074142;28;20976;-71
2021/07/04 00:38:06;;;;;;;24.60;23.10;;;;;;;;;;5074660;28;20457;-73
2021/07/04 00:40:33;;;;;;;27.17;25.47;;;;;;;;;;5074929;28;20494;-71
2021/07/04 00:43:01;;;;;;;27.80;26.03;;;;;;;;;;5074080;28;20447;-71
2021/07/04 00:45:29;;;;;;;27.87;25.73;;;;;;;;;;5074416;28;20451;-72
2021/07/04 00:47:57;;;;;;;27.97;26.00;;;;;;;;;;5073087;28;20451;-72
2021/07/04 00:50:25;;;;;;;28.40;26.30;;;;;;;;;;5073961;28;20458;-72
2021/07/04 00:52:53;;;;;;;27.13;25.23;;;;;;;;;;5074770;28;20458;-72
2021/07/04 00:55:20;;;;;;;26.20;24.17;;;;;;;;;;5074182;28;20453;-73
2021/07/04 00:57:48;;;;;;;28.00;26.00;;;;;;;;;;5074352;28;20443;-73
2021/07/04 01:00:16;;;;;;;26.60;25.00;;;;;;;;;;5073449;28;20442;-73
2021/07/04 01:02:45;;;;;;;26.17;24.40;;;;;;;;;;5073339;28;20954;-73
2021/07/04 01:05:13;;;;;;;27.10;25.40;;;;;;;;;;5073654;28;20483;-73
2021/07/04 01:07:41;;;;;;;26.10;24.40;;;;;;;;;;5073839;28;20453;-73
2021/07/04 01:10:09;;;;;;;26.70;24.80;;;;;;;;;;5073740;28;20447;-73
2021/07/04 01:12:38;;;;;;;25.97;24.40;;;;;;;;;;5073183;28;20443;-72
2021/07/04 01:15:05;;;;;;;26.30;24.50;;;;;;;;;;5072452;28;20447;-73
2021/07/04 01:17:33;;;;;;;25.70;23.90;;;;;;;;;;5072460;28;20518;-72
2021/07/04 01:20:02;;;;;;;25.90;24.20;;;;;;;;;;5073671;28;20446;-73
2021/07/04 01:22:30;;;;;;;25.70;24.10;;;;;;;;;;5072946;28;20451;-73
2021/07/04 01:24:59;;;;;;;25.73;24.03;;;;;;;;;;5073240;28;20478;-73
2021/07/04 01:27:26;;;;;;;25.60;24.00;;;;;;;;;;5072659;28;21069;-71
2021/07/04 01:29:53;;;;;;;25.33;23.83;;;;;;;;;;5073494;28;20488;-72
2021/07/04 01:32:20;;;;;;;25.70;24.23;;;;;;;;;;5072686;28;20466;-71
2021/07/04 01:34:47;;;;;;;25.17;23.70;;;;;;;;;;5072851;28;20447;-72
2021/07/04 01:37:14;;;;;;;25.40;23.57;;;;;;;;;;5073537;28;20451;-71
2021/07/04 01:39:41;;;;;;;25.50;24.10;;;;;;;;;;5072871;28;20459;-72
2021/07/04 01:42:10;;;;;;;25.63;24.23;;;;;;;;;;5072937;28;20475;-72
2021/07/04 01:44:37;;;;;;;25.50;24.00;;;;;;;;;;5072636;28;20474;-72
2021/07/04 01:47:04;;;;;;;26.40;24.43;;;;;;;;;;5072772;28;20454;-71
2021/07/04 01:49:32;;;;;;;24.70;23.40;;;;;;;;;;5071886;28;20447;-72
2021/07/04 01:51:59;;;;;;;25.40;23.70;;;;;;;;;;5071444;28;21011;-72
2021/07/04 01:54:26;;;;;;;24.00;22.70;;;;;;;;;;5072728;28;20447;-74
2021/07/04 01:56:53;;;;;;;24.60;23.20;;;;;;;;;;5072982;28;20453;-71
2021/07/04 01:59:22;;;;;;;24.13;22.63;;;;;;;;;;5072824;28;20845;-71
2021/07/04 02:01:49;;;;;;;24.00;22.70;;;;;;;;;;5068971;28;20467;-71
2021/07/04 02:04:16;;;;;;;24.67;23.37;;;;;;;;;;5071797;28;21021;-71
2021/07/04 02:06:43;;;;;;;23.73;22.43;;;;;;;;;;5072207;28;20820;-71
2021/07/04 02:09:10;;;;;;;24.30;22.90;;;;;;;;;;5072456;28;20450;-71
2021/07/04 02:11:37;;;;;;;24.30;22.90;;;;;;;;;;5071982;28;20475;-71
2021/07/04 02:14:05;;;;;;;23.70;22.43;;;;;;;;;;5072243;28;20451;-71
2021/07/04 02:16:33;;;;;;;23.67;22.47;;;;;;;;;;5072564;28;20958;-71
2021/07/04 02:19:00;;;;;;;24.00;22.70;;;;;;;;;;5072583;28;20541;-71
2021/07/04 02:21:27;;;;;;;24.00;22.70;;;;;;;;;;5072417;28;20484;-72
2021/07/04 02:23:55;;;;;;;23.77;22.37;;;;;;;;;;5072183;28;20490;-71
2021/07/04 02:26:22;;;;;;;23.97;22.67;;;;;;;;;;5075466;28;20447;-71
2021/07/04 02:28:49;;;;;;;23.23;22.03;;;;;;;;;;5076574;28;20816;-71
2021/07/04 02:31:16;;;;;;;24.93;23.33;;;;;;;;;;5075956;28;20466;-71
2021/07/04 02:33:44;;;;;;;23.73;22.43;;;;;;;;;;5076623;28;20697;-70
2021/07/04 02:36:11;;;;;;;24.80;23.40;;;;;;;;;;5076332;28;20964;-71
2021/07/04 02:38:39;;;;;;;24.40;23.00;;;;;;;;;;5076400;28;20443;-72
2021/07/04 02:41:06;;;;;;;23.93;22.63;;;;;;;;;;5075932;28;20480;-71
2021/07/04 02:43:33;;;;;;;23.60;22.30;;;;;;;;;;5076614;28;20887;-71
2021/07/04 02:46:00;;;;;;;23.20;21.90;;;;;;;;;;5076259;28;20457;-71
2021/07/04 02:48:27;;;;;;;23.60;22.30;;;;;;;;;;5076591;28;20455;-70
2021/07/04 02:50:56;;;;;;;22.90;21.70;;;;;;;;;;5076089;28;20466;-70
2021/07/04 02:53:23;;;;;;;24.37;23.10;;;;;;;;;;5076429;28;20815;-70
2021/07/04 02:55:50;;;;;;;22.40;21.20;;;;;;;;;;5076254;28;20450;-70
2021/07/04 02:58:17;;;;;;;24.17;22.97;;;;;;;;;;5075931;28;20447;-70
2021/07/04 03:00:45;;;;;;;23.83;22.63;;;;;;;;;;5076120;28;20978;-71
2021/07/04 03:03:12;;;;;;;23.20;22.07;;;;;;;;;;5075229;28;20988;-72
2021/07/04 03:05:39;;;;;;;24.73;23.40;;;;;;;;;;5076284;28;20489;-72
2021/07/04 03:08:08;;;;;;;22.93;21.63;;;;;;;;;;5076134;28;20942;-70
2021/07/04 03:10:35;;;;;;;23.53;22.33;;;;;;;;;;5075967;28;21001;-71
2021/07/04 03:13:03;;;;;;;23.70;22.50;;;;;;;;;;5075603;28;20973;-71
2021/07/04 03:15:30;;;;;;;24.50;23.10;;;;;;;;;;5075843;28;20536;-72
2021/07/04 03:17:57;;;;;;;24.47;22.97;;;;;;;;;;5075834;28;20461;-72
2021/07/04 03:20:24;;;;;;;25.50;23.70;;;;;;;;;;5075386;28;20466;-70
2021/07/04 03:22:51;;;;;;;23.57;22.10;;;;;;;;;;5075481;28;20930;-70
2021/07/04 03:25:20;;;;;;;23.00;21.80;;;;;;;;;;5075082;28;20487;-70
2021/07/04 03:27:47;;;;;;;23.90;22.50;;;;;;;;;;5072453;28;20450;-70
2021/07/04 03:30:16;;;;;;;23.53;22.23;;;;;;;;;;5075451;28;20443;-71
2021/07/04 03:32:44;;;;;;;23.60;22.30;;;;;;;;;;5075493;28;20461;-69
2021/07/04 03:35:12;;;;;;;23.57;22.30;;;;;;;;;;5074754;28;20534;-69
2021/07/04 03:37:40;;;;;;;23.20;22.00;;;;;;;;;;5075002;28;20443;-69
2021/07/04 03:40:08;;;;;;;23.10;21.90;;;;;;;;;;5075493;28;20453;-70
2021/07/04 03:42:36;;;;;;;23.60;22.33;;;;;;;;;;5074814;28;20451;-70
2021/07/04 03:45:04;;;;;;;22.40;21.20;;;;;;;;;;5075831;28;20489;-69
2021/07/04 03:47:31;;;;;;;22.93;21.70;;;;;;;;;;5075399;28;20538;-70
2021/07/04 03:49:59;;;;;;;23.30;21.80;;;;;;;;;;5075991;28;20443;-69
2021/07/04 03:52:26;;;;;;;23.13;21.57;;;;;;;;;;5056489;28;20943;-69
2021/07/04 03:54:53;;;;;;;23.23;21.93;;;;;;;;;;5055937;28;20491;-70
2021/07/04 03:57:23;;;;;;;22.93;21.83;;;;;;;;;;5055174;28;20818;-70
2021/07/04 03:59:52;;;;;;;21.93;20.83;;;;;;;;;;5055771;28;20476;-69
2021/07/04 04:02:20;;;;;;;23.00;21.80;;;;;;;;;;5074770;28;20471;-70
2021/07/04 04:04:47;;;;;;;21.93;20.70;;;;;;;;;;5074719;28;20475;-69
2021/07/04 04:07:14;;;;;;;22.40;21.27;;;;;;;;;;5074801;28;20447;-70
2021/07/04 04:09:42;;;;;;;22.70;21.50;;;;;;;;;;5075414;28;20546;-69
2021/07/04 04:12:09;;;;;;;22.93;21.63;;;;;;;;;;5074070;28;20478;-69
2021/07/04 04:14:37;;;;;;;22.80;21.63;;;;;;;;;;5074709;28;20938;-69
2021/07/04 04:17:06;;;;;;;22.70;21.53;;;;;;;;;;5075132;28;20450;-69
2021/07/04 04:19:33;;;;;;;23.07;21.83;;;;;;;;;;5074694;28;20442;-69
2021/07/04 04:22:00;;;;;;;22.57;21.47;;;;;;;;;;5073065;28;21015;-69
2021/07/04 04:24:28;;;;;;;22.50;21.30;;;;;;;;;;5074772;28;20493;-69
2021/07/04 04:26:55;;;;;;;22.30;21.10;;;;;;;;;;5073671;28;20458;-69
2021/07/04 04:29:22;;;;;;;22.03;21.03;;;;;;;;;;5074484;28;20446;-70
2021/07/04 04:31:49;;;;;;;23.17;21.80;;;;;;;;;;5073767;28;20477;-69
2021/07/04 04:34:18;;;;;;;23.77;22.37;;;;;;;;;;5074814;28;20446;-69
2021/07/04 04:36:45;;;;;;;24.10;22.40;;;;;;;;;;5074267;28;20451;-69
2021/07/04 04:39:12;;;;;;;23.07;21.73;;;;;;;;;;5074333;28;20533;-70
2021/07/04 04:41:39;;;;;;;22.50;21.40;;;;;;;;;;5073439;28;20474;-69
2021/07/04 04:44:07;;;;;;;23.33;22.03;;;;;;;;;;5074686;28;20541;-70
2021/07/04 04:46:35;;;;;;;23.60;22.20;;;;;;;;;;5074754;28;20455;-70
2021/07/04 04:49:02;;;;;;;22.97;21.77;;;;;;;;;;5074771;28;20457;-69
2021/07/04 04:51:31;;;;;;;22.77;21.67;;;;;;;;;;5074058;28;20546;-69
2021/07/04 04:53:58;;;;;;;23.17;21.87;;;;;;;;;;5074005;28;20443;-69
2021/07/04 04:56:25;;;;;;;22.33;21.13;;;;;;;;;;5073668;28;21174;-69
2021/07/04 04:58:52;;;;;;;23.10;21.50;;;;;;;;;;5073844;28;20930;-69
2021/07/04 05:01:19;;;;;;;23.30;21.67;;;;;;;;;;5073939;28;20477;-70
2021/07/04 05:03:46;;;;;;;22.67;21.37;;;;;;;;;;5072749;28;20720;-70
2021/07/04 05:06:14;;;;;;;23.50;22.03;;;;;;;;;;5073410;28;21027;-70
2021/07/04 05:08:42;;;;;;;22.53;21.33;;;;;;;;;;5074180;28;20462;-71
2021/07/04 05:11:09;;;;;;;23.20;21.90;;;;;;;;;;5073288;28;20482;-70
2021/07/04 05:13:37;;;;;;;22.50;21.10;;;;;;;;;;5073877;28;20500;-70
2021/07/04 05:16:04;;;;;;;22.83;21.63;;;;;;;;;;5073886;28;20447;-70
2021/07/04 05:18:31;;;;;;;22.53;21.47;;;;;;;;;;5074051;28;20458;-70
2021/07/04 05:20:59;;;;;;;21.90;20.80;;;;;;;;;;5073405;28;21023;-70
2021/07/04 05:23:26;;;;;;;21.90;20.70;;;;;;;;;;5073726;28;20469;-69
2021/07/04 05:25:56;;;;;;;21.70;20.60;;;;;;;;;;5073433;28;20997;-69
2021/07/04 05:28:23;;;;;;;21.93;20.73;;;;;;;;;;5075281;28;20431;-70
2021/07/04 05:30:51;;;;;;;23.07;21.77;;;;;;;;;;5073234;28;20467;-69
2021/07/04 05:33:18;;;;;;;23.40;22.10;;;;;;;;;;5072959;28;20447;-70
2021/07/04 05:35:45;;;;;;;22.60;21.50;;;;;;;;;;5073589;28;20443;-69
2021/07/04 05:38:18;;;;;;;22.70;21.47;;;;;;;;;;5073186;28;20507;-70
2021/07/04 05:40:45;;;;;;;22.90;21.47;;;;;;;;;;5073444;28;20839;-69
2021/07/04 05:43:14;;;;;;;23.10;21.80;;;;;;;;;;5073589;28;20787;-69
2021/07/04 05:45:41;;;;;;;23.30;22.00;;;;;;;;;;5073457;28;20483;-69
2021/07/04 05:48:08;;;;;;;22.60;21.20;;;;;;;;;;5073577;28;20797;-69
2021/07/04 05:50:35;;;;;;;23.20;22.00;;;;;;;;;;5072923;28;20463;-69
2021/07/04 05:53:02;;;;;;;23.13;21.83;;;;;;;;;;5074356;28;20453;-69
2021/07/04 05:55:29;;;;;;;22.60;21.30;;;;;;;;;;5073926;28;20449;-69
2021/07/04 05:57:57;;;;;;;23.10;21.80;;;;;;;;;;5073291;28;20451;-70
2021/07/04 06:00:25;;;;;;;22.13;20.90;;;;;;;;;;5072898;28;20549;-70
2021/07/04 06:02:52;;;;;;;23.00;21.80;;;;;;;;;;5073676;28;20446;-71
2021/07/04 06:05:19;;;;;;;23.00;21.70;;;;;;;;;;5073586;28;20481;-70
2021/07/04 06:07:47;;;;;;;22.47;21.27;;;;;;;;;;5073761;28;20457;-71
2021/07/04 06:10:14;;;;;;;22.80;21.50;;;;;;;;;;5072976;28;20453;-70
2021/07/04 06:12:41;;;;;;;22.77;21.47;;;;;;;;;;5072711;28;20431;-70
2021/07/04 06:15:09;;;;;;;22.30;21.20;;;;;;;;;;5072476;28;20449;-71
2021/07/04 06:17:38;;;;;;;22.70;21.50;;;;;;;;;;5073091;28;20447;-71
2021/07/04 06:20:06;;;;;;;22.20;20.90;;;;;;;;;;5070390;28;20453;-69
2021/07/04 06:22:33;;;;;;;22.40;21.30;;;;;;;;;;5052704;28;20447;-70
2021/07/04 06:25:00;;;;;;;22.07;21.03;;;;;;;;;;5053608;28;20483;-69
2021/07/04 06:27:27;;;;;;;22.47;21.27;;;;;;;;;;5056342;28;20457;-70
2021/07/04 06:29:54;;;;;;;22.60;21.40;;;;;;;;;;5072580;28;20455;-69
2021/07/04 06:32:21;;;;;;;23.30;21.90;;;;;;;;;;5071909;28;20996;-69
2021/07/04 06:34:50;;;;;;;22.97;21.87;;;;;;;;;;5072220;28;20453;-69
2021/07/04 06:37:17;;;;;;;22.60;21.40;;;;;;;;;;5072097;28;20473;-71
2021/07/04 06:39:44;;;;;;;23.07;21.77;;;;;;;;;;5071733;28;20457;-70
2021/07/04 06:42:12;;;;;;;23.70;22.33;;;;;;;;;;5071571;28;20466;-69
2021/07/04 06:44:39;;;;;;;23.90;21.90;;;;;;;;;;5072030;28;20442;-70
2021/07/04 06:47:06;;;;;;;22.70;21.47;;;;;;;;;;5071967;28;20475;-70
2021/07/04 06:49:33;;;;;;;23.07;21.77;;;;;;;;;;5072224;28;20457;-70
2021/07/04 06:52:02;;;;;;;22.10;20.90;;;;;;;;;;5071078;28;20477;-71
2021/07/04 06:54:29;;;;;;;23.23;21.63;;;;;;;;;;5063099;28;20446;-68
2021/07/04 06:56:56;;;;;;;22.80;21.60;;;;;;;;;;5072702;28;20447;-69
2021/07/04 06:59:23;;;;;;;22.53;21.33;;;;;;;;;;5072351;28;20450;-69
2021/07/04 07:01:50;;;;;;;22.37;21.27;;;;;;;;;;5069073;28;20493;-68
2021/07/04 07:04:18;;;;;;;21.10;20.10;;;;;;;;;;5073119;28;20451;-69
2021/07/04 07:06:45;;;;;;;21.77;20.57;;;;;;;;;;5071660;28;20487;-70
2021/07/04 07:09:14;;;;;;;21.20;20.00;;;;;;;;;;5068523;28;20968;-68
2021/07/04 07:11:41;;;;;;;22.00;21.00;;;;;;;;;;5072273;28;20475;-68
2021/07/04 07:14:08;;;;;;;21.30;20.13;;;;;;;;;;5076552;28;20442;-69
2021/07/04 07:16:35;;;;;;;21.60;20.53;;;;;;;;;;5076248;28;20453;-68
2021/07/04 07:19:03;;;;;;;21.37;20.27;;;;;;;;;;5075173;28;20514;-69
2021/07/04 07:21:30;;;;;;;21.20;20.20;;;;;;;;;;5075493;28;20462;-69
2021/07/04 07:23:57;;;;;;;21.60;20.60;;;;;;;;;;5074547;28;20451;-68
2021/07/04 07:26:25;;;;;;;21.37;20.37;;;;;;;;;;5071648;28;20506;-69
2021/07/04 07:28:52;;;;;;;21.17;20.00;;;;;;;;;;5074988;28;20818;-68
2021/07/04 07:31:21;;;;;;;19.60;18.70;;;;;;;;;;5074882;28;20471;-68
2021/07/04 07:33:49;;;;;;;20.10;19.10;;;;;;;;;;5075187;28;20443;-68
2021/07/04 07:36:16;;;;;;;20.07;19.07;;;;;;;;;;5074884;28;20828;-68
2021/07/04 07:38:43;;;;;;;20.33;19.33;;;;;;;;;;5066782;28;20463;-68
2021/07/04 07:41:10;;;;;;;20.07;19.07;;;;;;;;;;5054424;28;20471;-68
2021/07/04 07:43:39;;;;;;;19.83;18.93;;;;;;;;;;5071894;28;20450;-68
2021/07/04 07:46:06;;;;;;;19.50;18.60;;;;;;;;;;5073977;28;20844;-68
2021/07/04 07:48:33;;;;;;;20.00;18.90;;;;;;;;;;5074209;28;20443;-69
2021/07/04 07:51:00;;;;;;;19.40;18.50;;;;;;;;;;5072954;28;20475;-68
2021/07/04 07:53:27;;;;;;;20.17;19.17;;;;;;;;;;5074056;28;20456;-68
2021/07/04 07:55:54;;;;;;;20.07;19.07;;;;;;;;;;5075169;28;20545;-68
2021/07/04 07:58:21;;;;;;;20.13;19.13;;;;;;;;;;5075447;28;20871;-68
2021/07/04 08:00:50;;;;;;;19.70;18.80;;;;;;;;;;5074557;28;20466;-68
2021/07/04 08:03:17;;;;;;;18.90;18.00;;;;;;;;;;5073593;28;20451;-68
2021/07/04 08:05:44;;;;;;;20.10;19.00;;;;;;;;;;5073926;28;20474;-68
2021/07/04 08:08:11;;;;;;;20.20;19.30;;;;;;;;;;5066798;28;20454;-69
2021/07/04 08:10:38;;;;;;;19.90;18.90;;;;;;;;;;5064740;28;20485;-68
2021/07/04 08:13:06;;;;;;;20.50;19.50;;;;;;;;;;5073461;28;20454;-69
2021/07/04 08:15:33;;;;;;;19.87;18.97;;;;;;;;;;5072211;28;20443;-69
2021/07/04 08:18:01;;;;;;;19.93;18.77;;;;;;;;;;5069322;28;20453;-68
2021/07/04 08:20:31;;;;;;;19.40;18.50;;;;;;;;;;5072897;28;20466;-69
2021/07/04 08:22:58;;;;;;;19.67;18.70;;;;;;;;;;5072651;28;20451;-68
2021/07/04 08:25:25;;;;;;;19.80;18.80;;;;;;;;;;5073692;28;20443;-67
2021/07/04 08:27:52;;;;;;;20.27;19.30;;;;;;;;;;5074607;28;20812;-66
2021/07/04 08:30:20;;;;;;;20.23;19.23;;;;;;;;;;5073606;28;20450;-69
2021/07/04 08:32:47;;;;;;;19.40;18.50;;;;;;;;;;5073301;28;20542;-67
2021/07/04 08:35:16;;;;;;;20.47;19.40;;;;;;;;;;5073593;28;20457;-67
2021/07/04 08:37:43;;;;;;;20.00;19.00;;;;;;;;;;5073836;28;20447;-67
2021/07/04 08:40:11;;;;;;;39.17;27.63;;;;;;;;;;5072633;28;20613;-69
2021/07/04 08:42:38;;;;;;;21.10;20.00;;;;;;;;;;5073146;28;20453;-69
2021/07/04 08:45:06;;;;;;;21.50;20.30;;;;;;;;;;5072492;28;20450;-68
2021/07/04 08:47:34;;;;;;;21.10;19.70;;;;;;;;;;5071902;28;20482;-68
2021/07/04 08:50:01;;;;;;;20.83;19.63;;;;;;;;;;5072581;28;20447;-67
2021/07/04 08:52:29;;;;;;;20.70;19.60;;;;;;;;;;5072533;28;20466;-69
2021/07/04 08:54:57;;;;;;;19.30;18.30;;;;;;;;;;5072097;28;20454;-68
2021/07/04 08:57:24;;;;;;;19.57;18.57;;;;;;;;;;5072808;28;20539;-67
2021/07/04 08:59:51;;;;;;;19.80;18.80;;;;;;;;;;5072482;28;20453;-68
2021/07/04 09:02:29;;;;;;;19.87;18.77;;;;;;;;;;5071540;28;20478;-69
2021/07/04 09:05:01;;;;;;;20.33;19.33;;;;;;;;;;5072177;28;20454;-69
2021/07/04 09:07:30;;;;;;;20.30;19.30;;;;;;;;;;5072189;28;20485;-69
2021/07/04 09:09:58;;;;;;;22.73;21.63;;;;;;;;;;5072597;28;20459;-68
2021/07/04 09:12:35;;;;;;;21.00;19.97;;;;;;;;;;5071019;28;20828;-68
2021/07/04 09:15:08;;;;;;;40.20;38.13;;;;;;;;;;5072588;28;20529;-67
2021/07/04 09:17:37;;;;;;;43.07;40.57;;;;;;;;;;5071578;28;20435;-68
2021/07/04 09:20:05;;;;;;;32.07;30.47;;;;;;;;;;5072341;28;20442;-69
2021/07/04 09:22:35;;;;;;;21.53;20.43;;;;;;;;;;5066611;28;20450;-67
2021/07/04 09:25:07;;;;;;;26.63;25.03;;;;;;;;;;5071510;28;20458;-67
2021/07/04 09:27:34;;;;;;;25.83;24.43;;;;;;;;;;5071766;28;20487;-68
2021/07/04 09:30:02;;;;;;;24.37;23.10;;;;;;;;;;5072643;28;20454;-66
2021/07/04 09:32:29;;;;;;;21.93;20.73;;;;;;;;;;5073147;28;20453;-66
2021/07/04 09:34:58;;;;;;;20.93;19.83;;;;;;;;;;5067254;28;20454;-66
2021/07/04 09:37:35;;;;;;;21.20;20.10;;;;;;;;;;5072221;28;20439;-66
2021/07/04 09:40:12;;;;;;;20.87;19.77;;;;;;;;;;5071951;28;20447;-66
2021/07/04 09:42:53;;;;;;;20.80;19.47;;;;;;;;;;5071845;28;20917;-66
2021/07/04 09:45:21;;;;;;;21.53;20.33;;;;;;;;;;5071169;28;20450;-67
2021/07/04 09:47:51;;;;;;;20.20;19.20;;;;;;;;;;5071232;28;20817;-66
2021/07/04 09:50:18;;;;;;;21.00;19.87;;;;;;;;;;5067843;28;20451;-66
2021/07/04 09:52:57;;;;;;;21.80;20.60;;;;;;;;;;5059748;28;20477;-66
2021/07/04 09:55:26;;;;;;;22.77;21.47;;;;;;;;;;5071087;28;20475;-67
2021/07/04 09:57:54;;;;;;;21.70;20.60;;;;;;;;;;5071964;28;20446;-67
2021/07/04 10:00:22;;;;;;;23.13;21.73;;;;;;;;;;5067361;28;20951;-67
2021/07/04 10:03:11;;;;;;;21.03;19.80;;;;;;;;;;5051379;28;20939;-66
2021/07/04 10:05:38;;;;;;;21.47;20.27;;;;;;;;;;5065297;28;21020;-65
2021/07/04 10:08:26;;;;;;;21.07;20.07;;;;;;;;;;5070979;28;21227;-66
2021/07/04 10:10:54;;;;;;;21.27;20.07;;;;;;;;;;5070861;28;20561;-67
2021/07/04 10:13:21;;;;;;;20.50;19.40;;;;;;;;;;5071366;28;20472;-67
2021/07/04 10:15:48;;;;;;;20.30;19.30;;;;;;;;;;5053059;28;20452;-67
2021/07/04 10:18:16;;;;;;;20.53;19.53;;;;;;;;;;5065320;28;20443;-67
2021/07/04 10:20:44;;;;;;;21.33;20.20;;;;;;;;;;5070775;28;20509;-67
2021/07/04 10:23:13;;;;;;;21.97;20.87;;;;;;;;;;5072004;28;20443;-67
2021/07/04 10:25:43;;;;;;;21.07;19.97;;;;;;;;;;5071171;28;20457;-66
2021/07/04 10:28:10;;;;;;;20.40;19.40;;;;;;;;;;5070853;28;20493;-67
2021/07/04 10:30:37;;;;;;;21.30;20.20;;;;;;;;;;5070595;28;20466;-66
2021/07/04 10:33:06;;;;;;;21.17;19.80;;;;;;;;;;5071584;28;20447;-66
2021/07/04 10:35:33;;;;;;;22.50;21.20;;;;;;;;;;5070846;28;20825;-67
2021/07/04 10:38:12;;;;;;;21.20;20.10;;;;;;;;;;5071084;28;20443;-67
2021/07/04 10:40:41;;;;;;;20.33;19.23;;;;;;;;;;5070687;28;21020;-66
2021/07/04 10:43:08;;;;;;;20.80;19.70;;;;;;;;;;5070729;28;20946;-67
2021/07/04 10:45:37;;;;;;;20.03;19.03;;;;;;;;;;5070954;28;20477;-66
2021/07/04 10:48:21;;;;;;;20.33;19.23;;;;;;;;;;5074822;28;20487;-67
2021/07/04 10:51:07;;;;;;;20.50;19.50;;;;;;;;;;5074597;28;20474;-67
2021/07/04 10:53:45;;;;;;;20.60;19.00;;;;;;;;;;5075171;28;20447;-66
2021/07/04 10:56:27;;;;;;;20.00;19.00;;;;;;;;;;5073818;28;20459;-66
2021/07/04 10:59:03;;;;;;;21.73;19.97;;;;;;;;;;5057702;28;20453;-66
2021/07/04 11:01:45;;;;;;;20.43;19.23;;;;;;;;;;5063220;28;20465;-66
2021/07/04 11:04:26;;;;;;;19.90;18.90;;;;;;;;;;5070546;28;20827;-66
2021/07/04 11:06:54;;;;;;;20.40;19.20;;;;;;;;;;5074141;28;20496;-67
2021/07/04 11:09:21;;;;;;;22.10;20.70;;;;;;;;;;5074598;28;20461;-67
2021/07/04 11:11:48;;;;;;;20.40;19.30;;;;;;;;;;5073617;28;20493;-67
2021/07/04 11:14:16;;;;;;;20.97;19.57;;;;;;;;;;5074593;28;20457;-66
2021/07/04 11:16:58;;;;;;;21.80;20.20;;;;;;;;;;5075553;28;20469;-65
2021/07/04 11:19:25;;;;;;;22.83;20.60;;;;;;;;;;5074583;28;20464;-66
2021/07/04 11:21:56;;;;;;;22.40;20.93;;;;;;;;;;5075286;28;20477;-65
2021/07/04 11:24:24;;;;;;;21.00;19.70;;;;;;;;;;5078764;28;20450;-65
2021/07/04 11:27:09;;;;;;;21.70;20.27;;;;;;;;;;5070768;28;20479;-67
2021/07/04 11:29:38;;;;;;;21.80;20.47;;;;;;;;;;5074967;28;20461;-66
2021/07/04 11:32:20;;;;;;;20.93;19.83;;;;;;;;;;5070571;28;20499;-66
2021/07/04 11:34:49;;;;;;;21.70;20.27;;;;;;;;;;5074030;28;20446;-68
2021/07/04 11:37:16;;;;;;;21.90;20.70;;;;;;;;;;5073967;28;20447;-67
2021/07/04 11:39:55;;;;;;;21.80;20.60;;;;;;;;;;5074458;28;20451;-66
2021/07/04 11:42:25;;;;;;;22.23;20.90;;;;;;;;;;5071448;28;20955;-66
2021/07/04 11:44:53;;;;;;;21.70;20.40;;;;;;;;;;5073154;28;20829;-66
2021/07/04 11:47:20;;;;;;;22.10;20.90;;;;;;;;;;5073432;28;20482;-66
2021/07/04 11:49:48;;;;;;;22.10;21.00;;;;;;;;;;5072853;28;20463;-66
2021/07/04 11:52:20;;;;;;;22.60;21.20;;;;;;;;;;5072120;28;20485;-66
2021/07/04 11:54:47;;;;;;;22.10;20.90;;;;;;;;;;5074943;28;20461;-66
2021/07/04 11:57:30;;;;;;;22.93;21.73;;;;;;;;;;5071621;28;20459;-66
2021/07/04 11:59:59;;;;;;;22.47;21.10;;;;;;;;;;5075600;28;20439;-66
2021/07/04 12:02:27;;;;;;;22.57;21.27;;;;;;;;;;5073504;28;20466;-66
2021/07/04 12:04:54;;;;;;;22.97;21.50;;;;;;;;;;5074501;28;20447;-66
2021/07/04 12:07:22;;;;;;;22.30;21.10;;;;;;;;;;5071764;28;20478;-66
2021/07/04 12:09:50;;;;;;;22.43;21.13;;;;;;;;;;5074452;28;20447;-66
2021/07/04 12:12:19;;;;;;;22.30;21.13;;;;;;;;;;5072520;28;21024;-66
2021/07/04 12:14:46;;;;;;;22.60;21.40;;;;;;;;;;5069578;28;20841;-67
2021/07/04 12:17:23;;;;;;;22.33;21.23;;;;;;;;;;5073390;28;20465;-67
2021/07/04 12:19:56;;;;;;;22.47;21.27;;;;;;;;;;5075030;28;20463;-66
2021/07/04 12:22:24;;;;;;;22.57;21.47;;;;;;;;;;5074411;28;20555;-66
2021/07/04 12:24:51;;;;;;;22.73;21.63;;;;;;;;;;5071841;28;20459;-66
2021/07/04 12:27:19;;;;;;;22.17;21.07;;;;;;;;;;5070159;28;20483;-67
2021/07/04 12:30:20;;;;;;;22.80;21.50;;;;;;;;;;5068955;28;20524;-67
2021/07/04 12:32:49;;;;;;;22.60;21.37;;;;;;;;;;4991063;28;20466;-66
2021/07/04 12:35:21;;;;;;;22.83;21.67;;;;;;;;;;4991110;28;20516;-66
2021/07/04 12:37:49;;;;;;;24.33;23.03;;;;;;;;;;5030925;28;20946;-66
2021/07/04 12:40:18;;;;;;;22.23;21.10;;;;;;;;;;5072077;28;20831;-66
2021/07/04 12:42:46;;;;;;;22.03;20.93;;;;;;;;;;5054113;28;20439;-66
2021/07/04 12:45:14;;;;;;;22.13;21.03;;;;;;;;;;5063515;28;20459;-67
2021/07/04 12:47:41;;;;;;;22.83;21.70;;;;;;;;;;5072551;28;20855;-67
2021/07/04 12:50:12;;;;;;;22.93;21.73;;;;;;;;;;5073017;28;20476;-67
2021/07/04 12:52:52;;;;;;;22.70;21.60;;;;;;;;;;5071544;28;21041;-66
2021/07/04 12:55:34;;;;;;;23.17;21.93;;;;;;;;;;5068885;28;20465;-66
2021/07/04 12:58:19;;;;;;;22.93;21.80;;;;;;;;;;5071862;28;20431;-66
2021/07/04 13:00:46;;;;;;;22.67;21.57;;;;;;;;;;5066925;28;20464;-67
2021/07/04 13:03:13;;;;;;;22.93;21.63;;;;;;;;;;5072276;28;20467;-67
2021/07/04 13:05:42;;;;;;;22.77;21.57;;;;;;;;;;5072597;28;20954;-66
2021/07/04 13:08:12;;;;;;;23.87;22.67;;;;;;;;;;5068830;28;20479;-66
2021/07/04 13:10:40;;;;;;;23.17;22.07;;;;;;;;;;5071986;28;20486;-66
2021/07/04 13:13:11;;;;;;;23.57;22.37;;;;;;;;;;5070178;28;20459;-67
2021/07/04 13:15:38;;;;;;;24.07;22.87;;;;;;;;;;5071928;28;20518;-66
2021/07/04 13:18:06;;;;;;;24.00;22.80;;;;;;;;;;5072341;28;20466;-67
2021/07/04 13:20:33;;;;;;;23.30;22.10;;;;;;;;;;5072126;28;20474;-66
2021/07/04 13:23:01;;;;;;;23.20;21.90;;;;;;;;;;5071253;28;20486;-66
2021/07/04 13:25:29;;;;;;;23.53;22.43;;;;;;;;;;5070249;28;20462;-66
2021/07/04 13:28:00;;;;;;;24.27;22.93;;;;;;;;;;5069847;28;20479;-66
2021/07/04 13:30:28;;;;;;;23.13;21.93;;;;;;;;;;5071909;28;20514;-66
2021/07/04 13:32:56;;;;;;;22.33;21.20;;;;;;;;;;5072248;28;20479;-66
2021/07/04 13:35:31;;;;;;;22.70;21.40;;;;;;;;;;5070376;28;20557;-67
2021/07/04 13:38:00;;;;;;;23.10;21.90;;;;;;;;;;5071960;28;20451;-68
2021/07/04 13:40:29;;;;;;;23.30;21.90;;;;;;;;;;5071092;28;20996;-66
2021/07/04 13:42:56;;;;;;;23.10;22.00;;;;;;;;;;5072851;28;20514;-66
2021/07/04 13:45:27;;;;;;;23.17;21.87;;;;;;;;;;5068560;28;20467;-67
2021/07/04 13:47:55;;;;;;;23.60;22.40;;;;;;;;;;5070798;28;20485;-68
2021/07/04 13:50:22;;;;;;;23.43;22.23;;;;;;;;;;5070237;28;20476;-67
2021/07/04 13:52:49;;;;;;;22.27;21.17;;;;;;;;;;5070831;28;20467;-66
2021/07/04 13:55:16;;;;;;;22.13;21.03;;;;;;;;;;5069681;28;21060;-66
2021/07/04 13:57:45;;;;;;;23.47;22.27;;;;;;;;;;5069479;28;20462;-66
2021/07/04 14:00:13;;;;;;;22.93;21.83;;;;;;;;;;5071032;28;20453;-66
2021/07/04 14:02:40;;;;;;;22.87;21.77;;;;;;;;;;5068065;28;20467;-66
2021/07/04 14:05:07;;;;;;;23.00;21.80;;;;;;;;;;5068225;28;20463;-67
2021/07/04 14:07:34;;;;;;;23.57;22.27;;;;;;;;;;5069168;28;20495;-66
2021/07/04 14:10:02;;;;;;;23.70;22.50;;;;;;;;;;5071081;28;21675;-67
2021/07/04 14:12:29;;;;;;;22.43;21.23;;;;;;;;;;5069645;28;20486;-66
2021/07/04 14:14:59;;;;;;;22.60;21.50;;;;;;;;;;5068367;28;20475;-67
2021/07/04 14:17:27;;;;;;;22.53;21.43;;;;;;;;;;5068337;28;20467;-67
2021/07/04 14:19:56;;;;;;;22.50;21.40;;;;;;;;;;5068750;28;20826;-66
2021/07/04 14:22:23;;;;;;;22.87;21.77;;;;;;;;;;5073910;28;20479;-67
2021/07/04 14:24:50;;;;;;;22.20;21.10;;;;;;;;;;5075343;28;20820;-67